Time;durP1;ratioP1;P1;durP2;ratioP2;P2;SDS_P1;SDS_P2;PMS_P1;PMS_P2;Temp;Humidity;BMP_temperature;BMP_pressure;BME280_temperature;BME280_humidity;BME280_pressure;Samples;Min_cycle;Max_cycle;Signal;HPM_P1;HPM_P2
2024/01/29 00:01:35;;;;;;;7.10;6.90;;;21.30;40.80;;;;;;5014910;28;20484;-66
2024/01/29 00:04:02;;;;;;;8.17;7.87;;;21.30;40.70;;;;;;5014011;28;20849;-66
2024/01/29 00:06:30;;;;;;;7.57;7.37;;;21.30;40.60;;;;;;5006907;28;20466;-66
2024/01/29 00:08:57;;;;;;;7.23;7.03;;;21.30;40.50;;;;;;5014684;28;20493;-66
2024/01/29 00:11:26;;;;;;;7.90;7.60;;;21.30;40.50;;;;;;5014529;28;20447;-67
2024/01/29 00:13:52;;;;;;;7.40;7.10;;;21.30;40.40;;;;;;5014742;28;20965;-66
2024/01/29 00:16:19;;;;;;;7.20;6.90;;;21.30;40.40;;;;;;5014490;28;20474;-66
2024/01/29 00:18:46;;;;;;;6.97;6.77;;;21.20;40.30;;;;;;5014434;28;20521;-66
2024/01/29 00:21:13;;;;;;;7.00;6.70;;;21.20;40.30;;;;;;5014636;28;20470;-66
2024/01/29 00:23:40;;;;;;;7.13;6.93;;;21.20;40.10;;;;;;5011175;28;20443;-66
2024/01/29 00:26:07;;;;;;;7.03;6.83;;;21.30;40.00;;;;;;5011218;28;20473;-67
2024/01/29 00:28:35;;;;;;;7.43;7.13;;;21.20;39.90;;;;;;5014350;28;20486;-66
2024/01/29 00:31:02;;;;;;;7.40;7.10;;;21.20;39.90;;;;;;5014698;28;20442;-66
2024/01/29 00:33:29;;;;;;;7.13;6.93;;;21.20;39.90;;;;;;5014248;28;20469;-66
2024/01/29 00:35:57;;;;;;;7.27;7.07;;;21.20;40.00;;;;;;5013953;28;20477;-66
2024/01/29 00:38:24;;;;;;;7.20;6.80;;;21.20;40.10;;;;;;5014044;28;20520;-66
2024/01/29 00:40:51;;;;;;;6.60;6.40;;;21.20;40.30;;;;;;5014226;28;20470;-66
2024/01/29 00:43:18;;;;;;;7.67;7.37;;;21.20;40.40;;;;;;5014049;28;20466;-66
2024/01/29 00:45:46;;;;;;;7.90;7.70;;;21.20;40.50;;;;;;5014092;28;20485;-67
2024/01/29 00:48:13;;;;;;;7.33;7.13;;;21.20;40.60;;;;;;5013631;28;20805;-67
2024/01/29 00:50:40;;;;;;;8.20;7.90;;;21.20;40.70;;;;;;5014061;28;20473;-66
2024/01/29 00:53:07;;;;;;;7.60;7.30;;;21.20;40.70;;;;;;5013828;28;20470;-66
2024/01/29 00:55:34;;;;;;;7.30;7.10;;;21.20;41.30;;;;;;5013928;28;20553;-67
2024/01/29 00:58:01;;;;;;;7.60;7.30;;;21.20;40.90;;;;;;5013906;28;20492;-67
2024/01/29 01:00:27;;;;;;;7.33;7.13;;;21.20;40.90;;;;;;5013586;28;20505;-67
2024/01/29 01:02:56;;;;;;;7.80;7.50;;;21.20;41.00;;;;;;5013409;28;20866;-67
2024/01/29 01:05:23;;;;;;;7.77;7.57;;;21.30;41.10;;;;;;5013636;28;20474;-66
2024/01/29 01:07:49;;;;;;;7.20;7.00;;;21.20;41.10;;;;;;5013704;28;20489;-66
2024/01/29 01:10:16;;;;;;;6.87;6.67;;;21.20;41.10;;;;;;5013465;28;20466;-67
2024/01/29 01:12:43;;;;;;;7.23;6.93;;;21.20;41.20;;;;;;5013429;28;20929;-66
2024/01/29 01:15:10;;;;;;;7.57;7.37;;;21.20;41.20;;;;;;5013348;28;20496;-67
2024/01/29 01:17:37;;;;;;;7.97;7.63;;;21.30;41.30;;;;;;5013625;28;20500;-66
2024/01/29 01:20:07;;;;;;;7.47;7.17;;;21.30;41.30;;;;;;5013780;28;20509;-67
2024/01/29 01:22:33;;;;;;;6.80;6.60;;;21.20;41.30;;;;;;5005331;28;20438;-66
2024/01/29 01:25:00;;;;;;;6.87;6.67;;;21.20;41.30;;;;;;5013389;28;20466;-66
2024/01/29 01:27:27;;;;;;;6.40;6.30;;;21.30;41.40;;;;;;5013367;28;20979;-66
2024/01/29 01:29:54;;;;;;;7.07;6.87;;;21.30;41.40;;;;;;5013520;28;20903;-66
2024/01/29 01:32:21;;;;;;;6.77;6.50;;;21.30;41.50;;;;;;5013196;28;20478;-66
2024/01/29 01:34:48;;;;;;;6.83;6.63;;;21.30;41.50;;;;;;5013105;28;20474;-67
2024/01/29 01:37:16;;;;;;;6.90;6.70;;;21.30;41.50;;;;;;5013279;28;20481;-67
2024/01/29 01:39:44;;;;;;;6.57;6.37;;;21.30;41.60;;;;;;5013009;28;20520;-66
2024/01/29 01:42:10;;;;;;;6.80;6.60;;;21.30;41.60;;;;;;5012913;28;20489;-66
2024/01/29 01:44:37;;;;;;;7.17;6.97;;;21.20;41.50;;;;;;5012804;28;20470;-66
2024/01/29 01:47:05;;;;;;;7.13;6.93;;;21.30;41.60;;;;;;5012830;28;20474;-66
2024/01/29 01:49:32;;;;;;;7.07;6.97;;;21.30;41.60;;;;;;5012602;28;20493;-67
2024/01/29 01:51:59;;;;;;;7.60;7.40;;;21.30;41.70;;;;;;5012197;28;20877;-67
2024/01/29 01:54:27;;;;;;;7.07;6.97;;;21.30;41.70;;;;;;5012632;28;20481;-66
2024/01/29 01:56:54;;;;;;;7.50;7.30;;;21.30;41.70;;;;;;5012957;28;20477;-66
2024/01/29 01:59:21;;;;;;;7.00;6.90;;;21.30;41.70;;;;;;5012592;28;20482;-67
2024/01/29 02:01:49;;;;;;;7.20;7.00;;;21.30;41.70;;;;;;5012564;28;20533;-67
2024/01/29 02:04:16;;;;;;;6.80;6.70;;;21.30;41.80;;;;;;5012507;28;20525;-66
2024/01/29 02:06:43;;;;;;;6.77;6.57;;;21.30;41.80;;;;;;5012618;28;20876;-66
2024/01/29 02:09:10;;;;;;;7.50;7.20;;;21.30;41.80;;;;;;5012431;28;20485;-66
2024/01/29 02:11:38;;;;;;;7.13;6.93;;;21.30;41.80;;;;;;5012526;28;20476;-66
2024/01/29 02:14:05;;;;;;;6.90;6.70;;;21.30;41.80;;;;;;5012120;28;20493;-67
2024/01/29 02:16:32;;;;;;;7.33;7.13;;;21.30;41.90;;;;;;5012357;28;20470;-66
2024/01/29 02:18:59;;;;;;;7.30;7.00;;;21.30;41.80;;;;;;5012191;28;20489;-66
2024/01/29 02:21:26;;;;;;;7.50;7.30;;;21.30;41.90;;;;;;5012464;28;20484;-67
2024/01/29 02:23:54;;;;;;;7.40;7.20;;;21.30;41.90;;;;;;5012340;28;20480;-67
2024/01/29 02:26:21;;;;;;;7.20;7.00;;;21.30;42.00;;;;;;5012262;28;20478;-66
2024/01/29 02:28:48;;;;;;;6.90;6.80;;;21.30;42.00;;;;;;5012190;28;20457;-66
2024/01/29 02:31:15;;;;;;;7.50;7.30;;;21.30;42.00;;;;;;5012043;28;20466;-66
2024/01/29 02:33:42;;;;;;;7.40;7.20;;;21.30;42.00;;;;;;5012031;28;20470;-67
2024/01/29 02:36:09;;;;;;;8.17;7.87;;;21.30;42.00;;;;;;5012118;28;20481;-66
2024/01/29 02:38:37;;;;;;;7.77;7.57;;;21.30;42.10;;;;;;5004126;28;20497;-66
2024/01/29 02:41:05;;;;;;;7.00;6.90;;;21.30;42.00;;;;;;5011770;28;20477;-66
2024/01/29 02:43:32;;;;;;;7.30;7.10;;;21.30;42.00;;;;;;5011765;28;20492;-66
2024/01/29 02:45:59;;;;;;;6.93;6.73;;;21.30;42.00;;;;;;5012151;28;20473;-66
2024/01/29 02:48:26;;;;;;;7.80;7.60;;;21.30;42.10;;;;;;5011605;28;20494;-67
2024/01/29 02:50:53;;;;;;;7.47;7.20;;;21.30;42.00;;;;;;5011966;28;20477;-67
2024/01/29 02:53:20;;;;;;;6.83;6.63;;;21.30;42.00;;;;;;5011736;28;20477;-67
2024/01/29 02:55:47;;;;;;;7.57;7.33;;;21.30;42.10;;;;;;5012276;28;20472;-66
2024/01/29 02:58:15;;;;;;;7.20;7.00;;;21.30;42.10;;;;;;5011805;28;20914;-66
2024/01/29 03:00:42;;;;;;;8.00;7.30;;;21.30;42.10;;;;;;5011665;28;20513;-66
2024/01/29 03:03:09;;;;;;;7.17;6.97;;;21.30;42.10;;;;;;5011630;28;20916;-67
2024/01/29 03:05:36;;;;;;;7.10;6.90;;;21.30;42.10;;;;;;5003301;28;20465;-66
2024/01/29 03:08:04;;;;;;;8.00;7.80;;;21.30;42.10;;;;;;5011868;28;20497;-66
2024/01/29 03:10:30;;;;;;;6.90;6.77;;;21.30;42.10;;;;;;5011777;28;21261;-67
2024/01/29 03:12:57;;;;;;;7.30;7.00;;;21.30;42.20;;;;;;5011745;28;20488;-66
2024/01/29 03:15:26;;;;;;;8.37;8.17;;;21.30;42.20;;;;;;5011819;28;20442;-66
2024/01/29 03:17:53;;;;;;;7.37;7.17;;;21.30;42.20;;;;;;5011399;28;20468;-67
2024/01/29 03:20:19;;;;;;;6.70;6.50;;;21.30;42.20;;;;;;5011675;28;20509;-66
2024/01/29 03:22:46;;;;;;;7.07;6.87;;;21.30;42.20;;;;;;5011677;28;20477;-67
2024/01/29 03:25:13;;;;;;;7.20;7.00;;;21.30;42.20;;;;;;5011927;28;20470;-67
2024/01/29 03:27:40;;;;;;;6.43;6.33;;;21.30;42.20;;;;;;5011485;28;20474;-66
2024/01/29 03:30:08;;;;;;;7.20;7.00;;;21.30;42.20;;;;;;5011511;28;20442;-66
2024/01/29 03:32:36;;;;;;;7.00;6.80;;;21.30;42.20;;;;;;5011487;28;20477;-66
2024/01/29 03:35:04;;;;;;;7.77;7.37;;;21.30;42.30;;;;;;5011777;28;20469;-67
2024/01/29 03:37:30;;;;;;;7.37;7.17;;;21.30;42.30;;;;;;5011331;28;20977;-67
2024/01/29 03:39:57;;;;;;;7.67;7.47;;;21.30;42.30;;;;;;5011413;28;21012;-67
2024/01/29 03:42:24;;;;;;;7.47;7.17;;;21.30;42.30;;;;;;5011361;28;20870;-66
2024/01/29 03:44:51;;;;;;;6.80;6.60;;;21.30;42.30;;;;;;5011463;28;20446;-66
2024/01/29 03:47:18;;;;;;;6.80;6.60;;;21.30;42.30;;;;;;5011252;28;20492;-66
2024/01/29 03:49:46;;;;;;;6.83;6.63;;;21.30;42.30;;;;;;5011389;28;20508;-66
2024/01/29 03:52:13;;;;;;;6.83;6.63;;;21.30;42.30;;;;;;5011364;28;20474;-67
2024/01/29 03:54:40;;;;;;;7.03;6.77;;;21.30;42.40;;;;;;5011453;28;20469;-67
2024/01/29 03:57:07;;;;;;;6.40;6.20;;;21.30;42.40;;;;;;5011319;28;20470;-66
2024/01/29 03:59:35;;;;;;;7.10;6.90;;;21.30;42.40;;;;;;5010732;28;20497;-66
2024/01/29 04:02:02;;;;;;;7.20;7.00;;;21.30;42.40;;;;;;5011275;28;20775;-66
2024/01/29 04:04:29;;;;;;;7.00;6.80;;;21.30;42.40;;;;;;5011250;28;20489;-66
2024/01/29 04:06:57;;;;;;;6.67;6.57;;;21.30;42.40;;;;;;5011263;28;20473;-66
2024/01/29 04:09:24;;;;;;;6.70;6.50;;;21.30;42.40;;;;;;5011030;28;20897;-67
2024/01/29 04:11:51;;;;;;;8.97;8.63;;;21.30;42.90;;;;;;5011442;28;20931;-66
2024/01/29 04:14:19;;;;;;;7.20;7.00;;;21.30;42.40;;;;;;5010971;28;20542;-66
2024/01/29 04:16:46;;;;;;;8.97;8.50;;;21.30;42.40;;;;;;5013802;28;20859;-67
2024/01/29 04:19:13;;;;;;;7.37;7.17;;;21.30;42.40;;;;;;5014722;28;20462;-66
2024/01/29 04:21:42;;;;;;;7.00;6.80;;;21.30;42.40;;;;;;5006544;28;21017;-66
2024/01/29 04:24:11;;;;;;;7.00;6.80;;;21.30;42.50;;;;;;5014833;28;20433;-66
2024/01/29 04:26:39;;;;;;;7.57;7.37;;;21.30;42.40;;;;;;5014473;28;20473;-67
2024/01/29 04:29:08;;;;;;;7.20;7.00;;;21.30;43.00;;;;;;5014197;28;20465;-66
2024/01/29 04:31:35;;;;;;;7.70;7.50;;;21.30;42.40;;;;;;5014295;28;20537;-66
2024/01/29 04:34:02;;;;;;;7.30;7.10;;;21.30;42.40;;;;;;5014343;28;20968;-66
2024/01/29 04:36:29;;;;;;;7.00;6.80;;;21.30;42.40;;;;;;5014383;28;20946;-67
2024/01/29 04:38:56;;;;;;;7.30;7.10;;;21.30;42.40;;;;;;5014075;28;20489;-66
2024/01/29 04:41:24;;;;;;;7.60;7.40;;;21.30;42.40;;;;;;5014110;28;20486;-66
2024/01/29 04:43:51;;;;;;;6.73;6.63;;;21.30;42.40;;;;;;5013944;28;20872;-67
2024/01/29 04:46:18;;;;;;;7.20;7.10;;;21.30;42.50;;;;;;5013951;28;20478;-67
2024/01/29 04:48:45;;;;;;;7.00;6.80;;;21.30;42.50;;;;;;5013764;28;20504;-67
2024/01/29 04:51:12;;;;;;;7.60;7.40;;;21.30;42.50;;;;;;5013843;28;20476;-66
2024/01/29 04:53:40;;;;;;;8.07;7.67;;;21.30;42.50;;;;;;5013787;28;20465;-66
2024/01/29 04:56:07;;;;;;;7.80;7.60;;;21.30;42.50;;;;;;5013932;28;20473;-67
2024/01/29 04:58:36;;;;;;;6.80;6.60;;;21.30;42.50;;;;;;5013475;28;20516;-67
2024/01/29 05:01:03;;;;;;;7.30;7.10;;;21.30;42.50;;;;;;5013913;28;21077;-67
2024/01/29 05:03:30;;;;;;;7.03;6.83;;;21.30;42.50;;;;;;5013963;28;20474;-66
2024/01/29 05:05:57;;;;;;;8.10;7.83;;;21.30;42.50;;;;;;5013759;28;20468;-67
2024/01/29 05:08:24;;;;;;;7.97;7.77;;;21.40;42.60;;;;;;5013448;28;20490;-66
2024/01/29 05:10:51;;;;;;;8.17;7.93;;;21.30;42.50;;;;;;5013506;28;20933;-66
2024/01/29 05:13:18;;;;;;;8.40;8.20;;;21.40;42.60;;;;;;5013503;28;20478;-66
2024/01/29 05:15:46;;;;;;;8.27;8.00;;;21.40;42.60;;;;;;5013723;28;20469;-67
2024/01/29 05:18:13;;;;;;;7.00;6.90;;;21.40;42.60;;;;;;5013451;28;20993;-66
2024/01/29 05:20:40;;;;;;;7.27;7.07;;;21.40;42.60;;;;;;5013358;28;20560;-66
2024/01/29 05:23:07;;;;;;;6.83;6.63;;;21.40;42.70;;;;;;5013443;28;20477;-66
2024/01/29 05:25:34;;;;;;;7.30;7.10;;;21.40;42.60;;;;;;5013080;28;20929;-66
2024/01/29 05:28:01;;;;;;;8.20;7.90;;;21.40;42.70;;;;;;5012687;28;20521;-66
2024/01/29 05:30:27;;;;;;;7.60;7.30;;;21.40;42.70;;;;;;5013508;28;20470;-67
2024/01/29 05:32:56;;;;;;;7.43;7.23;;;21.40;42.70;;;;;;5013259;28;20477;-66
2024/01/29 05:35:23;;;;;;;7.80;7.60;;;21.40;42.70;;;;;;5013034;28;20473;-67
2024/01/29 05:37:49;;;;;;;7.63;7.43;;;21.40;42.70;;;;;;5013070;28;20485;-66
2024/01/29 05:40:16;;;;;;;7.80;7.60;;;21.40;42.70;;;;;;5012972;28;20895;-66
2024/01/29 05:42:51;;;;;;;8.20;7.97;;;21.40;42.60;;;;;;5013035;28;20450;-66
2024/01/29 05:45:18;;;;;;;7.70;7.50;;;21.50;42.80;;;;;;5012916;28;20445;-66
2024/01/29 05:47:45;;;;;;;9.30;8.60;;;21.50;42.80;;;;;;5012781;28;20476;-67
2024/01/29 05:50:13;;;;;;;9.00;8.60;;;21.50;43.10;;;;;;5013242;28;20442;-66
2024/01/29 05:52:40;;;;;;;8.70;8.07;;;21.50;43.20;;;;;;5012666;28;20473;-67
2024/01/29 05:55:08;;;;;;;8.70;8.20;;;21.50;43.70;;;;;;5012676;28;20465;-65
2024/01/29 05:57:35;;;;;;;7.80;7.30;;;21.50;44.80;;;;;;5011826;28;20869;-65
2024/01/29 06:00:03;;;;;;;9.67;9.27;;;21.50;44.50;;;;;;5012505;28;20454;-65
2024/01/29 06:02:30;;;;;;;9.73;9.13;;;21.50;44.50;;;;;;5012341;28;20450;-66
2024/01/29 06:04:56;;;;;;;9.23;8.40;;;21.50;44.60;;;;;;5012543;28;20438;-66
2024/01/29 06:07:25;;;;;;;9.83;9.03;;;21.50;44.60;;;;;;5012284;28;20477;-65
2024/01/29 06:09:52;;;;;;;10.43;9.80;;;21.50;44.70;;;;;;5012560;28;20489;-66
2024/01/29 06:12:18;;;;;;;10.33;9.33;;;21.60;44.70;;;;;;5012132;28;20474;-66
2024/01/29 06:14:45;;;;;;;10.40;9.80;;;21.60;44.70;;;;;;5012471;28;20477;-66
2024/01/29 06:17:12;;;;;;;8.57;8.00;;;21.50;44.70;;;;;;5012275;28;20512;-66
2024/01/29 06:19:42;;;;;;;9.70;9.10;;;21.60;44.70;;;;;;5011996;28;20498;-65
2024/01/29 06:22:09;;;;;;;9.70;8.80;;;21.60;44.70;;;;;;5012075;28;20490;-66
2024/01/29 06:24:37;;;;;;;8.70;7.87;;;21.60;44.70;;;;;;5012282;28;20446;-66
2024/01/29 06:27:04;;;;;;;10.37;9.20;;;21.50;44.80;;;;;;5012206;28;20473;-65
2024/01/29 06:29:31;;;;;;;8.20;7.90;;;21.60;44.70;;;;;;5011973;28;20500;-65
2024/01/29 06:31:58;;;;;;;9.10;8.60;;;21.60;44.70;;;;;;5011950;28;20467;-66
2024/01/29 06:34:25;;;;;;;8.17;7.67;;;21.60;44.70;;;;;;5012022;28;20480;-65
2024/01/29 06:36:54;;;;;;;8.53;8.03;;;21.60;44.70;;;;;;5012047;28;20857;-65
2024/01/29 06:39:21;;;;;;;10.53;9.80;;;21.60;44.60;;;;;;5011672;28;20469;-65
2024/01/29 06:41:49;;;;;;;9.47;9.03;;;21.60;44.60;;;;;;5011959;28;20488;-66
2024/01/29 06:44:16;;;;;;;9.23;8.93;;;21.60;44.60;;;;;;5011928;28;20481;-65
2024/01/29 06:46:43;;;;;;;10.90;9.80;;;21.60;44.60;;;;;;5011921;28;20854;-65
2024/01/29 06:49:25;;;;;;;8.10;7.80;;;21.60;44.50;;;;;;5011589;28;20498;-65
2024/01/29 06:51:52;;;;;;;10.40;9.53;;;21.60;44.50;;;;;;5004542;28;20462;-65
2024/01/29 06:54:18;;;;;;;9.23;8.83;;;21.60;44.50;;;;;;5011897;28;20481;-66
2024/01/29 06:56:46;;;;;;;9.90;9.20;;;21.60;44.50;;;;;;5003854;28;20961;-66
2024/01/29 06:59:14;;;;;;;9.50;9.00;;;21.60;44.40;;;;;;5011698;28;20470;-66
2024/01/29 07:01:41;;;;;;;9.73;9.13;;;21.60;44.40;;;;;;5011500;28;20573;-66
2024/01/29 07:04:08;;;;;;;9.27;8.60;;;21.60;44.40;;;;;;5011870;28;20850;-66
2024/01/29 07:06:35;;;;;;;8.77;8.20;;;21.70;44.50;;;;;;5011528;28;20888;-66
2024/01/29 07:09:02;;;;;;;9.00;8.60;;;21.60;44.40;;;;;;5011584;28;20516;-65
2024/01/29 07:11:29;;;;;;;8.60;8.10;;;21.70;44.40;;;;;;5011615;28;20442;-66
2024/01/29 07:13:56;;;;;;;9.00;8.50;;;21.70;44.40;;;;;;5011568;28;20474;-65
2024/01/29 07:16:24;;;;;;;9.90;9.40;;;21.70;44.30;;;;;;5011557;28;20481;-66
2024/01/29 07:18:51;;;;;;;8.23;7.93;;;21.70;44.40;;;;;;5011484;28;20488;-66
2024/01/29 07:21:18;;;;;;;9.93;9.23;;;21.70;44.30;;;;;;5011447;28;20519;-65
2024/01/29 07:23:45;;;;;;;9.23;8.73;;;21.70;44.30;;;;;;5011511;28;20442;-65
2024/01/29 07:26:11;;;;;;;9.50;8.97;;;21.70;44.30;;;;;;5011491;28;20551;-66
2024/01/29 07:28:38;;;;;;;8.67;8.37;;;21.70;44.20;;;;;;5011308;28;20497;-65
2024/01/29 07:31:05;;;;;;;9.30;8.80;;;21.70;44.30;;;;;;5011360;28;20434;-66
2024/01/29 07:33:33;;;;;;;8.93;8.53;;;21.70;44.20;;;;;;5011457;28;20484;-66
2024/01/29 07:36:02;;;;;;;10.17;9.37;;;21.70;44.20;;;;;;5011511;28;20488;-65
2024/01/29 07:38:29;;;;;;;9.67;9.03;;;21.70;44.20;;;;;;5011111;28;20494;-65
2024/01/29 07:40:56;;;;;;;8.50;8.20;;;21.70;44.10;;;;;;5011126;28;20509;-66
2024/01/29 07:43:23;;;;;;;9.33;8.90;;;21.70;44.10;;;;;;5011180;28;20441;-66
2024/01/29 07:45:49;;;;;;;9.03;8.73;;;21.70;44.10;;;;;;5011105;28;20481;-65
2024/01/29 07:48:16;;;;;;;10.33;9.80;;;21.70;44.00;;;;;;5011134;28;20497;-65
2024/01/29 07:50:45;;;;;;;10.10;9.60;;;21.70;44.00;;;;;;5012330;28;20894;-65
2024/01/29 07:53:11;;;;;;;9.73;9.43;;;21.70;44.00;;;;;;5014970;28;20867;-66
2024/01/29 07:55:38;;;;;;;10.33;9.73;;;21.70;44.00;;;;;;5014822;28;20478;-65
2024/01/29 07:58:05;;;;;;;9.93;9.53;;;21.70;44.00;;;;;;5014711;28;20505;-66
2024/01/29 08:00:32;;;;;;;9.03;8.63;;;21.70;44.00;;;;;;5014844;28;20442;-66
2024/01/29 08:02:59;;;;;;;10.60;9.57;;;21.70;44.00;;;;;;5014684;28;20521;-66
2024/01/29 08:05:26;;;;;;;10.63;10.03;;;21.70;43.90;;;;;;5014560;28;20470;-66
2024/01/29 08:07:54;;;;;;;9.40;9.00;;;21.70;43.90;;;;;;5014721;28;20553;-66
2024/01/29 08:10:21;;;;;;;10.37;9.87;;;21.70;43.90;;;;;;5014697;28;20486;-65
2024/01/29 08:12:48;;;;;;;9.23;8.93;;;21.70;43.80;;;;;;5006584;28;20489;-65
2024/01/29 08:15:15;;;;;;;9.93;9.53;;;21.70;43.80;;;;;;5014622;28;20465;-65
2024/01/29 08:17:42;;;;;;;10.07;9.77;;;21.70;43.80;;;;;;5014406;28;20484;-65
2024/01/29 08:20:10;;;;;;;10.27;9.67;;;21.70;43.80;;;;;;5014486;28;20470;-65
2024/01/29 08:22:37;;;;;;;10.57;10.07;;;21.70;43.80;;;;;;5014211;28;21013;-65
2024/01/29 08:25:06;;;;;;;10.93;10.27;;;21.70;43.70;;;;;;5014453;28;20466;-65
2024/01/29 08:27:33;;;;;;;10.70;10.33;;;21.70;43.70;;;;;;5014123;28;20882;-65
2024/01/29 08:30:00;;;;;;;10.63;10.10;;;21.70;43.70;;;;;;5014241;28;20878;-65
2024/01/29 08:32:27;;;;;;;10.30;10.00;;;21.70;43.70;;;;;;5014202;28;20462;-65
2024/01/29 08:34:54;;;;;;;11.17;10.77;;;21.70;43.70;;;;;;5014150;28;20438;-66
2024/01/29 08:37:20;;;;;;;11.40;11.00;;;21.70;43.70;;;;;;5014301;28;20815;-66
2024/01/29 08:39:48;;;;;;;10.13;9.63;;;21.70;43.70;;;;;;5013886;28;20493;-66
2024/01/29 08:42:16;;;;;;;10.43;9.97;;;21.70;43.60;;;;;;5013967;28;20493;-65
2024/01/29 08:44:43;;;;;;;12.07;11.57;;;21.70;43.60;;;;;;5014010;28;20470;-65
2024/01/29 08:47:10;;;;;;;10.40;9.97;;;21.70;43.60;;;;;;5014096;28;20496;-66
2024/01/29 08:49:37;;;;;;;10.33;10.03;;;21.70;43.60;;;;;;5013700;28;20466;-65
2024/01/29 08:52:04;;;;;;;10.20;9.80;;;21.70;43.60;;;;;;5013950;28;20438;-65
2024/01/29 08:54:31;;;;;;;10.20;9.40;;;21.70;43.50;;;;;;5013827;28;20875;-66
2024/01/29 08:56:58;;;;;;;10.20;9.80;;;21.70;43.50;;;;;;5013929;28;21156;-66
2024/01/29 08:59:29;;;;;;;10.20;9.90;;;21.70;43.50;;;;;;5013798;28;20501;-66
2024/01/29 09:01:57;;;;;;;10.17;9.77;;;21.70;43.50;;;;;;5012419;28;20509;-65
2024/01/29 09:04:24;;;;;;;9.93;9.50;;;21.70;43.50;;;;;;5013982;28;20500;-65
2024/01/29 09:06:52;;;;;;;11.50;11.00;;;21.70;43.50;;;;;;5005995;28;20505;-65
2024/01/29 09:09:19;;;;;;;11.23;10.90;;;21.70;43.50;;;;;;5013644;28;20462;-65
2024/01/29 09:11:46;;;;;;;10.90;10.50;;;21.70;43.40;;;;;;5013359;28;20531;-65
2024/01/29 09:14:13;;;;;;;9.70;9.30;;;21.70;43.40;;;;;;5013391;28;20446;-66
2024/01/29 09:16:41;;;;;;;10.50;10.20;;;21.70;43.40;;;;;;5013308;28;20470;-65
2024/01/29 09:19:08;;;;;;;9.80;9.30;;;21.70;43.40;;;;;;5013301;28;20493;-65
2024/01/29 09:21:36;;;;;;;10.50;10.10;;;21.70;43.40;;;;;;5013095;28;20535;-65
2024/01/29 09:24:03;;;;;;;9.90;9.60;;;21.70;43.40;;;;;;5013127;28;20929;-65
2024/01/29 09:26:31;;;;;;;9.87;9.60;;;21.70;43.40;;;;;;5013235;28;20889;-65
2024/01/29 09:28:58;;;;;;;9.53;9.23;;;21.70;43.40;;;;;;5013202;28;20458;-65
2024/01/29 09:31:25;;;;;;;10.50;10.10;;;21.70;43.40;;;;;;5013077;28;20512;-65
2024/01/29 09:33:53;;;;;;;10.73;10.33;;;21.70;43.40;;;;;;5005041;28;20466;-66
2024/01/29 09:36:20;;;;;;;10.27;9.97;;;21.70;43.40;;;;;;5013135;28;20470;-65
2024/01/29 09:38:47;;;;;;;11.67;11.27;;;21.80;43.40;;;;;;5012804;28;20492;-66
2024/01/29 09:41:14;;;;;;;10.43;10.13;;;21.80;43.40;;;;;;5013186;28;20925;-66
2024/01/29 09:43:41;;;;;;;10.70;10.10;;;21.80;43.40;;;;;;5013087;28;20772;-66
2024/01/29 09:46:09;;;;;;;11.67;11.27;;;21.70;43.40;;;;;;5013308;28;20442;-66
2024/01/29 09:48:38;;;;;;;10.00;9.70;;;21.70;43.30;;;;;;5012506;28;20466;-66
2024/01/29 09:51:12;;;;;;;11.30;10.90;;;21.80;43.40;;;;;;5012659;28;20477;-66
2024/01/29 09:53:39;;;;;;;10.90;10.50;;;21.70;43.30;;;;;;5012526;28;20442;-66
2024/01/29 09:56:07;;;;;;;10.33;9.93;;;21.80;43.40;;;;;;5012721;28;20469;-66
2024/01/29 09:58:33;;;;;;;10.10;9.80;;;21.70;43.30;;;;;;5012396;28;20873;-65
2024/01/29 10:01:06;;;;;;;9.70;9.40;;;21.70;43.40;;;;;;5012544;28;20470;-66
2024/01/29 10:03:38;;;;;;;11.63;11.03;;;21.70;43.30;;;;;;5012287;28;20520;-66
2024/01/29 10:06:07;;;;;;;12.00;10.83;;;21.80;43.40;;;;;;5012507;28;20961;-66
2024/01/29 10:08:34;;;;;;;10.37;10.07;;;21.80;43.40;;;;;;5012530;28;20494;-66
2024/01/29 10:11:01;;;;;;;10.67;10.37;;;21.80;43.40;;;;;;5012415;28;20442;-66
2024/01/29 10:13:29;;;;;;;10.23;9.80;;;21.80;43.40;;;;;;5011865;28;20470;-66
2024/01/29 10:15:57;;;;;;;11.00;10.67;;;21.80;43.40;;;;;;5012357;28;20837;-65
2024/01/29 10:18:24;;;;;;;11.17;10.77;;;21.80;43.40;;;;;;5012296;28;20493;-66
2024/01/29 10:21:00;;;;;;;10.60;10.10;;;21.80;43.30;;;;;;5012142;28;20477;-66
2024/01/29 10:23:28;;;;;;;9.97;9.67;;;21.80;43.40;;;;;;5012211;28;20485;-66
2024/01/29 10:25:56;;;;;;;10.50;10.20;;;21.80;43.40;;;;;;5004461;28;20492;-66
2024/01/29 10:28:23;;;;;;;10.40;10.10;;;21.80;43.40;;;;;;5012122;28;20497;-66
2024/01/29 10:30:50;;;;;;;10.97;10.57;;;21.50;43.20;;;;;;5011869;28;20525;-67
2024/01/29 10:33:18;;;;;;;10.87;10.50;;;21.80;43.40;;;;;;5012034;28;20953;-66
2024/01/29 10:35:44;;;;;;;10.50;10.10;;;21.80;43.40;;;;;;5012158;28;20446;-66
2024/01/29 10:38:15;;;;;;;9.60;9.30;;;21.80;43.40;;;;;;5011974;28;20486;-66
2024/01/29 10:40:44;;;;;;;10.30;10.00;;;21.80;43.30;;;;;;5011829;28;20446;-66
2024/01/29 10:43:18;;;;;;;11.10;10.60;;;21.80;43.40;;;;;;5011722;28;20478;-66
2024/01/29 10:45:47;;;;;;;10.10;9.80;;;21.80;43.30;;;;;;5011846;28;20446;-66
2024/01/29 10:48:19;;;;;;;10.30;9.90;;;21.80;43.40;;;;;;5011758;28;20768;-66
2024/01/29 10:50:48;;;;;;;10.53;10.13;;;21.80;43.30;;;;;;5011715;28;20817;-65
2024/01/29 10:53:17;;;;;;;10.40;10.10;;;21.80;43.30;;;;;;5011807;28;20434;-66
2024/01/29 10:55:50;;;;;;;10.23;9.90;;;21.80;43.30;;;;;;5011818;28;20886;-66
2024/01/29 10:58:18;;;;;;;10.97;10.57;;;21.80;43.30;;;;;;5011632;28;20472;-66
2024/01/29 11:00:46;;;;;;;10.40;10.10;;;21.80;43.30;;;;;;5011628;28;20477;-65
2024/01/29 11:03:13;;;;;;;10.07;9.77;;;21.80;43.30;;;;;;5011528;28;20920;-66
2024/01/29 11:05:43;;;;;;;11.03;10.73;;;21.80;43.30;;;;;;5011713;28;20473;-66
2024/01/29 11:08:16;;;;;;;10.77;10.40;;;21.80;43.30;;;;;;5011675;28;20497;-66
2024/01/29 11:10:43;;;;;;;11.40;11.00;;;21.80;43.30;;;;;;5011635;28;20915;-66
2024/01/29 11:13:14;;;;;;;10.53;10.23;;;21.80;43.30;;;;;;5011480;28;20466;-66
2024/01/29 11:15:41;;;;;;;11.20;10.80;;;21.80;43.30;;;;;;5011430;28;20444;-66
2024/01/29 11:18:09;;;;;;;10.67;10.27;;;21.80;43.30;;;;;;5011477;28;20461;-66
2024/01/29 11:20:38;;;;;;;11.40;11.10;;;21.80;43.30;;;;;;5011473;28;20474;-66
2024/01/29 11:23:05;;;;;;;10.03;9.70;;;21.80;43.30;;;;;;5011464;28;21104;-66
2024/01/29 11:25:32;;;;;;;11.30;11.00;;;21.80;43.30;;;;;;5012426;28;20465;-65
2024/01/29 11:28:02;;;;;;;11.07;10.77;;;21.80;43.20;;;;;;5015420;28;20461;-66
2024/01/29 11:30:31;;;;;;;11.87;11.37;;;21.80;43.20;;;;;;5015385;28;20446;-65
2024/01/29 11:33:14;;;;;;;10.10;9.80;;;21.80;43.40;;;;;;5015323;28;20773;-66
2024/01/29 11:35:41;;;;;;;10.40;10.10;;;21.80;43.20;;;;;;5015369;28;20452;-66
2024/01/29 11:38:11;;;;;;;11.00;10.70;;;21.80;43.20;;;;;;5015180;28;20501;-66
2024/01/29 11:40:40;;;;;;;10.50;10.20;;;21.80;43.20;;;;;;5015155;28;20456;-66
2024/01/29 11:43:11;;;;;;;9.93;9.60;;;21.80;43.30;;;;;;5015075;28;20915;-66
2024/01/29 11:45:40;;;;;;;10.70;10.40;;;21.90;43.30;;;;;;5015066;28;20488;-66
2024/01/29 11:48:11;;;;;;;10.40;10.10;;;21.90;43.30;;;;;;5015191;28;20465;-67
2024/01/29 11:50:38;;;;;;;9.57;9.27;;;21.90;43.40;;;;;;5014981;28;20477;-66
2024/01/29 11:53:05;;;;;;;11.33;10.83;;;21.90;43.40;;;;;;5015009;28;20472;-67
2024/01/29 11:55:33;;;;;;;9.87;9.60;;;21.90;43.30;;;;;;5015076;28;20500;-66
2024/01/29 11:57:59;;;;;;;10.50;10.17;;;21.90;43.30;;;;;;5014944;28;20988;-67
2024/01/29 12:00:26;;;;;;;9.30;9.10;;;21.90;43.30;;;;;;5014865;28;20473;-66
2024/01/29 12:02:55;;;;;;;9.83;9.53;;;21.90;43.80;;;;;;5014609;28;20575;-66
2024/01/29 12:05:22;;;;;;;10.50;10.20;;;21.90;43.30;;;;;;5014813;28;20478;-67
2024/01/29 12:07:49;;;;;;;9.63;9.43;;;21.90;43.30;;;;;;5014543;28;20548;-66
2024/01/29 12:10:16;;;;;;;11.00;10.60;;;21.90;43.30;;;;;;5014639;28;20481;-66
2024/01/29 12:12:43;;;;;;;9.90;9.60;;;21.90;43.30;;;;;;5014534;28;20937;-66
2024/01/29 12:15:11;;;;;;;9.50;9.27;;;21.90;43.30;;;;;;5014546;28;21004;-66
2024/01/29 12:17:41;;;;;;;10.03;9.63;;;21.90;43.30;;;;;;5014368;28;20881;-66
2024/01/29 12:20:11;;;;;;;10.10;9.70;;;21.90;43.30;;;;;;5014616;28;20732;-66
2024/01/29 12:22:38;;;;;;;10.03;9.73;;;21.90;43.30;;;;;;5014360;28;20481;-66
2024/01/29 12:25:07;;;;;;;10.67;10.37;;;21.90;43.30;;;;;;5014383;28;20438;-67
2024/01/29 12:27:34;;;;;;;10.53;10.23;;;21.90;43.30;;;;;;5014211;28;20799;-66
2024/01/29 12:30:04;;;;;;;10.57;10.27;;;21.90;43.30;;;;;;5014320;28;20792;-67
2024/01/29 12:32:32;;;;;;;10.40;10.10;;;21.90;43.30;;;;;;5014377;28;20500;-66
2024/01/29 12:34:59;;;;;;;9.50;9.30;;;22.00;43.40;;;;;;5014331;28;20877;-66
2024/01/29 12:37:28;;;;;;;9.73;9.53;;;22.00;43.40;;;;;;5013816;28;20985;-66
2024/01/29 12:39:55;;;;;;;9.87;9.57;;;22.00;43.40;;;;;;5014116;28;20465;-67
2024/01/29 12:42:23;;;;;;;10.33;9.90;;;21.90;43.30;;;;;;5014021;28;20470;-67